Dickinson's Hourly Summary for Monday, May 14, 2018
Hour Temp
(f)
RH
(%)
Solar Rad.
(MJ/m2)
Rainfall
(in)
Wind
(mph)
5/14/2018 12:00 AM 76 85 0 0 2.93
5/14/2018 1:00 AM 76 86 0 0 1.62
5/14/2018 2:00 AM 76 86 0 0 1.49
5/14/2018 3:00 AM 75 88 0 0 0.36
5/14/2018 4:00 AM 74 90 0 0 0
5/14/2018 5:00 AM 73 93 0 0 0
5/14/2018 6:00 AM 73 94 0 0 0
5/14/2018 7:00 AM 72 95 0.03 0 0
5/14/2018 8:00 AM 74 86 0.3 0 0.38
5/14/2018 9:00 AM 78 73 1.21 0 3.89
5/14/2018 10:00 AM 80 61 0.85 0 4.87
5/14/2018 11:00 AM 82 57 2.36 0 5.74
5/14/2018 12:00 PM 82 58 2.08 0 5.6
5/14/2018 1:00 PM 82 56 2.11 0 5.2
5/14/2018 2:00 PM 84 47 3.32 0 6.06
5/14/2018 3:00 PM 85 48 3.17 0 6.17
5/14/2018 4:00 PM 85 47 2.98 0 6.75
5/14/2018 5:00 PM 84 50 2.04 0 6.81
5/14/2018 6:00 PM 82 53 1.17 0 6.39
5/14/2018 7:00 PM 81 58 0.79 0 5.44
5/14/2018 8:00 PM 79 66 0.29 0 5
5/14/2018 9:00 PM 77 77 0 0 1.9
5/14/2018 10:00 PM 75 82 0 0 0.23
5/14/2018 11:00 PM 73 87 0 0 0
Data Summary 78 71 22.70 0.00 3.20